createdAt,value
2018-12-05T00:00:15.870Z,99.99
2018-12-05T00:01:15.854Z,99.99
2018-12-05T00:02:15.838Z,99.99
2018-12-05T00:03:15.823Z,99.99
2018-12-05T00:04:15.807Z,99.99
2018-12-05T00:05:15.802Z,99.99
2018-12-05T00:06:15.777Z,99.99
2018-12-05T00:07:15.761Z,99.99
2018-12-05T00:08:15.744Z,99.99
2018-12-05T00:09:15.730Z,99.99
2018-12-05T00:10:15.714Z,99.99
2018-12-05T00:11:15.698Z,99.99
2018-12-05T00:12:15.682Z,99.99
2018-12-05T00:13:15.667Z,99.99
2018-12-05T00:14:15.649Z,99.99
2018-12-05T00:15:15.633Z,99.99
2018-12-05T00:16:15.620Z,99.99
2018-12-05T00:17:15.603Z,99.99
2018-12-05T00:18:15.586Z,99.99
2018-12-05T00:19:15.571Z,99.99
2018-12-05T00:20:15.556Z,99.99
2018-12-05T00:21:15.537Z,99.99
2018-12-05T00:22:15.525Z,99.99
2018-12-05T00:23:15.507Z,99.99
2018-12-05T00:24:15.493Z,99.99
2018-12-05T00:25:15.477Z,99.99
2018-12-05T00:26:15.460Z,99.99
2018-12-05T00:27:15.446Z,99.99
2018-12-05T00:28:15.440Z,99.99
2018-12-05T00:29:15.411Z,99.99
2018-12-05T00:30:15.398Z,99.99
2018-12-05T00:31:15.386Z,99.99
2018-12-05T00:32:15.364Z,99.99
2018-12-05T00:33:15.351Z,99.99
2018-12-05T00:34:15.331Z,99.99
2018-12-05T00:35:15.317Z,99.99
2018-12-05T00:36:15.301Z,99.99
2018-12-05T00:37:15.288Z,99.99
2018-12-05T00:38:15.271Z,99.99
2018-12-05T00:39:15.253Z,99.99
2018-12-05T00:40:15.238Z,99.99
2018-12-05T00:41:15.221Z,99.99
2018-12-05T00:42:15.205Z,99.99
2018-12-05T00:43:15.187Z,99.99
2018-12-05T00:44:15.179Z,99.99
2018-12-05T00:45:15.159Z,99.99
2018-12-05T00:46:15.142Z,99.99
2018-12-05T00:47:15.125Z,99.99
2018-12-05T00:48:15.112Z,99.99
2018-12-05T00:49:15.097Z,99.99
2018-12-05T00:50:15.078Z,99.99
2018-12-05T00:51:15.061Z,99.99
2018-12-05T00:52:15.045Z,99.99
2018-12-05T00:53:15.031Z,99.99
2018-12-05T00:54:15.013Z,99.99
2018-12-05T00:55:14.998Z,99.99
2018-12-05T00:56:14.981Z,99.99
2018-12-05T00:57:14.965Z,99.99
2018-12-05T00:58:14.955Z,99.99
2018-12-05T00:59:14.934Z,99.99
2018-12-05T01:00:14.919Z,99.99
2018-12-05T01:01:14.902Z,99.99
2018-12-05T01:02:14.886Z,99.99
2018-12-05T01:03:14.870Z,99.99
2018-12-05T01:04:14.854Z,99.99
2018-12-05T01:05:14.837Z,99.99
2018-12-05T01:06:14.825Z,99.99
2018-12-05T01:07:14.809Z,99.99
2018-12-05T01:08:14.797Z,99.99
2018-12-05T01:09:14.778Z,99.99
2018-12-05T01:10:14.758Z,99.99
2018-12-05T01:11:14.743Z,99.99
2018-12-05T01:12:14.726Z,99.99
2018-12-05T01:13:14.710Z,99.99
2018-12-05T01:14:14.694Z,99.99
2018-12-05T01:15:14.678Z,99.99
2018-12-05T01:16:14.664Z,99.99
2018-12-05T01:17:14.646Z,99.99
2018-12-05T01:18:14.632Z,99.99
2018-12-05T01:19:14.614Z,99.99
2018-12-05T01:20:14.597Z,99.99
2018-12-05T01:21:14.584Z,99.99
2018-12-05T01:22:14.570Z,99.99
2018-12-05T01:23:14.551Z,99.99
2018-12-05T01:24:14.533Z,99.99
2018-12-05T01:25:14.517Z,99.99
2018-12-05T01:26:14.502Z,99.99
2018-12-05T01:27:14.485Z,99.99
2018-12-05T01:28:14.469Z,99.99
2018-12-05T01:29:14.455Z,99.99
2018-12-05T01:30:14.438Z,99.99
2018-12-05T01:31:14.429Z,99.99
2018-12-05T01:32:14.405Z,99.99
2018-12-05T01:33:14.389Z,99.99
2018-12-05T01:34:14.375Z,99.99
2018-12-05T01:35:14.360Z,99.99
2018-12-05T01:36:14.347Z,99.99
2018-12-05T01:37:14.327Z,99.99
2018-12-05T01:38:14.309Z,99.99
2018-12-05T01:39:14.301Z,99.99
2018-12-05T01:40:14.278Z,99.99
2018-12-05T01:41:14.264Z,99.99
2018-12-05T01:42:14.246Z,99.99
2018-12-05T01:43:14.230Z,99.99
2018-12-05T01:44:14.215Z,99.99
2018-12-05T01:45:14.197Z,99.99
2018-12-05T01:46:14.181Z,99.99
2018-12-05T01:47:14.166Z,99.99
2018-12-05T01:48:14.153Z,99.99
2018-12-05T01:49:14.132Z,99.99
2018-12-05T01:50:14.122Z,99.99
2018-12-05T01:51:14.101Z,99.99
2018-12-05T01:52:14.085Z,99.99
2018-12-05T01:53:14.068Z,99.99
2018-12-05T01:54:14.052Z,99.99
2018-12-05T01:55:14.035Z,99.99
2018-12-05T01:56:14.023Z,99.99
2018-12-05T01:57:14.010Z,99.99
2018-12-05T01:58:13.994Z,99.99
2018-12-05T01:59:13.976Z,99.99
2018-12-05T02:00:13.965Z,99.99
2018-12-05T02:01:13.938Z,99.99
2018-12-05T02:02:13.924Z,99.99
2018-12-05T02:03:13.906Z,99.99
2018-12-05T02:04:13.893Z,99.99
2018-12-05T02:05:13.875Z,99.99
2018-12-05T02:06:15.174Z,99.99
2018-12-05T02:07:13.844Z,99.99
2018-12-05T02:08:13.826Z,99.99
2018-12-05T02:09:13.815Z,99.99
2018-12-05T02:10:13.794Z,99.99
2018-12-05T02:11:13.781Z,99.99
2018-12-05T02:12:13.760Z,99.99
2018-12-05T02:13:13.745Z,99.99
2018-12-05T02:14:13.732Z,99.99
2018-12-05T02:15:13.713Z,99.99
2018-12-05T02:16:13.696Z,99.99
2018-12-05T02:17:13.679Z,99.99
2018-12-05T02:18:13.664Z,99.99
2018-12-05T02:19:13.648Z,99.99
2018-12-05T02:20:13.632Z,99.99
2018-12-05T02:21:13.618Z,99.99
2018-12-05T02:22:13.601Z,99.99
2018-12-05T02:23:13.585Z,99.99
2018-12-05T02:24:13.566Z,99.99
2018-12-05T02:25:13.550Z,99.99
2018-12-05T02:26:13.533Z,99.99
2018-12-05T02:27:13.518Z,99.99
2018-12-05T02:28:13.500Z,99.99
2018-12-05T02:29:13.484Z,99.99
2018-12-05T02:30:13.550Z,99.99
2018-12-05T02:31:13.451Z,99.99
2018-12-05T02:32:13.436Z,99.99
2018-12-05T02:33:13.419Z,99.99
2018-12-05T02:34:13.426Z,99.99
2018-12-05T02:35:13.387Z,99.99
2018-12-05T02:36:13.373Z,99.99
2018-12-05T02:37:13.353Z,99.99
2018-12-05T02:38:13.339Z,99.99
2018-12-05T02:39:13.322Z,99.99
2018-12-05T02:40:13.317Z,99.99
2018-12-05T02:41:13.290Z,99.99
2018-12-05T02:42:13.275Z,99.99
2018-12-05T02:43:13.255Z,99.99
2018-12-05T02:44:13.239Z,99.99
2018-12-05T02:45:13.231Z,99.99
2018-12-05T02:46:13.209Z,99.99
2018-12-05T02:47:13.190Z,99.99
2018-12-05T02:48:13.178Z,99.99
2018-12-05T02:49:13.157Z,99.99
2018-12-05T02:50:13.142Z,99.99
2018-12-05T02:51:13.135Z,99.99
2018-12-05T02:52:13.110Z,99.99
2018-12-05T02:53:13.092Z,99.99
2018-12-05T02:54:13.081Z,99.99
2018-12-05T02:55:13.064Z,99.99
2018-12-05T02:56:13.043Z,99.99
2018-12-05T02:57:13.028Z,99.99
2018-12-05T02:58:13.012Z,99.99
2018-12-05T02:59:12.992Z,99.99
2018-12-05T03:00:12.984Z,99.99
2018-12-05T03:01:12.961Z,99.99
2018-12-05T03:02:12.943Z,99.99
2018-12-05T03:03:12.925Z,99.99
2018-12-05T03:04:12.914Z,99.99
2018-12-05T03:05:12.895Z,99.99
2018-12-05T03:06:12.879Z,99.99
2018-12-05T03:07:12.863Z,99.99
2018-12-05T03:08:12.853Z,99.99
2018-12-05T03:09:12.830Z,99.99
2018-12-05T03:10:12.816Z,99.99
2018-12-05T03:11:12.795Z,99.99
2018-12-05T03:12:12.779Z,99.99
2018-12-05T03:13:12.760Z,99.99
2018-12-05T03:14:12.755Z,99.99
2018-12-05T03:15:12.737Z,99.99
2018-12-05T03:16:12.723Z,99.99
2018-12-05T03:17:12.700Z,99.99
2018-12-05T03:18:12.682Z,99.99
2018-12-05T03:19:12.664Z,99.99
2018-12-05T03:20:12.696Z,99.99
2018-12-05T03:21:12.630Z,99.99
2018-12-05T03:22:12.617Z,99.99
2018-12-05T03:23:12.598Z,99.99
2018-12-05T03:24:12.584Z,99.99
2018-12-05T03:25:12.566Z,99.99
2018-12-05T03:26:12.561Z,99.99
2018-12-05T03:27:12.534Z,99.99
2018-12-05T03:28:12.519Z,99.99
2018-12-05T03:29:12.498Z,99.99
2018-12-05T03:30:12.504Z,99.99
2018-12-05T03:31:12.474Z,99.99
2018-12-05T03:32:12.463Z,99.99
2018-12-05T03:33:12.488Z,99.99
2018-12-05T03:34:12.419Z,99.99
2018-12-05T03:35:12.403Z,99.99
2018-12-05T03:36:12.390Z,99.99
2018-12-05T03:37:12.365Z,99.99
2018-12-05T03:38:12.384Z,99.99
2018-12-05T03:39:12.336Z,99.99
2018-12-05T03:40:12.318Z,99.99
2018-12-05T03:41:12.299Z,99.99
2018-12-05T03:42:12.284Z,99.99
2018-12-05T03:43:12.268Z,99.99
2018-12-05T03:44:12.252Z,99.99
2018-12-05T03:45:12.233Z,99.99
2018-12-05T03:46:12.220Z,99.99
2018-12-05T03:47:12.205Z,99.99
2018-12-05T03:48:12.185Z,99.99
2018-12-05T03:49:12.170Z,99.99
2018-12-05T03:50:12.150Z,99.99
2018-12-05T03:51:12.135Z,99.99
2018-12-05T03:52:12.122Z,99.99
2018-12-05T03:53:12.101Z,99.99
2018-12-05T03:54:12.084Z,99.99
2018-12-05T03:55:12.080Z,99.99
2018-12-05T03:56:12.056Z,99.99
2018-12-05T03:57:12.039Z,99.99
2018-12-05T03:58:12.024Z,99.99
2018-12-05T03:59:12.006Z,99.9
2018-12-05T04:00:11.987Z,99.8
2018-12-05T04:01:11.972Z,99.99
2018-12-05T04:02:11.959Z,99.99
2018-12-05T04:03:11.939Z,99.99
2018-12-05T04:04:11.919Z,99.99
2018-12-05T04:05:11.914Z,99.99
2018-12-05T04:06:11.894Z,99.99
2018-12-05T04:07:11.864Z,99.99
2018-12-05T04:08:11.868Z,99.99
2018-12-05T04:09:11.847Z,99.99
2018-12-05T04:10:11.826Z,99.99
2018-12-05T04:11:11.786Z,99.99
2018-12-05T04:12:11.770Z,99.99
2018-12-05T04:13:11.753Z,99.99
2018-12-05T04:14:11.740Z,99.99
2018-12-05T04:15:11.722Z,99.99
2018-12-05T04:16:11.707Z,99.99
2018-12-05T04:17:11.686Z,99.99
2018-12-05T04:18:12.946Z,99.99
2018-12-05T04:19:11.655Z,99.99
2018-12-05T04:20:11.639Z,99.99
2018-12-05T04:21:11.621Z,99.99
2018-12-05T04:22:11.605Z,99.99
2018-12-05T04:23:11.592Z,99.99
2018-12-05T04:24:11.579Z,99.99
2018-12-05T04:25:11.557Z,99.99
2018-12-05T04:26:11.537Z,99.99
2018-12-05T04:27:11.522Z,99.99
2018-12-05T04:28:11.505Z,99.99
2018-12-05T04:29:11.487Z,99.99
2018-12-05T04:30:11.473Z,99.99
2018-12-05T04:31:11.458Z,99.99
2018-12-05T04:32:11.440Z,99.99
2018-12-05T04:33:11.424Z,99.99
2018-12-05T04:34:11.408Z,99.99
2018-12-05T04:35:11.398Z,99.99
2018-12-05T04:36:11.381Z,99.9
2018-12-05T04:37:11.358Z,99.99
2018-12-05T04:38:11.340Z,99.99
2018-12-05T04:39:11.324Z,99.99
2018-12-05T04:40:11.308Z,99.99
2018-12-05T04:41:11.296Z,99.99
2018-12-05T04:42:11.282Z,99.99
2018-12-05T04:43:11.260Z,99.99
2018-12-05T04:44:11.245Z,99.99
2018-12-05T04:45:11.240Z,99.62
2018-12-05T04:46:11.210Z,99.99
2018-12-05T04:47:11.201Z,99.99
2018-12-05T04:48:11.175Z,99.99
2018-12-05T04:49:11.171Z,99.99
2018-12-05T04:50:11.144Z,99.99
2018-12-05T04:51:11.150Z,99.99
2018-12-05T04:52:11.111Z,99.71
2018-12-05T04:53:11.093Z,99.99
2018-12-05T04:54:11.078Z,99.99
2018-12-05T04:55:11.061Z,99.99
2018-12-05T04:56:11.065Z,99.99
2018-12-05T04:57:11.038Z,99.99
2018-12-05T04:58:11.013Z,99.99
2018-12-05T04:59:10.995Z,99.99
2018-12-05T05:00:10.978Z,99.99
2018-12-05T05:01:10.965Z,99.99
2018-12-05T05:02:10.954Z,99.99
2018-12-05T05:03:10.930Z,99.99
2018-12-05T05:04:10.913Z,99.99
2018-12-05T05:05:10.895Z,99.9
2018-12-05T05:06:10.879Z,99.99
2018-12-05T05:07:10.863Z,99.99
2018-12-05T05:08:10.865Z,99.99
2018-12-05T05:09:10.830Z,99.99
2018-12-05T05:10:10.813Z,99.8
2018-12-05T05:11:10.807Z,99.99
2018-12-05T05:12:10.831Z,99.99
2018-12-05T05:13:10.766Z,99.99
2018-12-05T05:14:10.748Z,99.8
2018-12-05T05:15:10.730Z,99.9
2018-12-05T05:16:10.717Z,99.99
2018-12-05T05:17:10.695Z,99.99
2018-12-05T05:18:10.684Z,99.99
2018-12-05T05:19:10.666Z,99.99
2018-12-05T05:20:11.985Z,99.99
2018-12-05T05:21:10.649Z,99.71
2018-12-05T05:22:10.618Z,99.99
2018-12-05T05:23:10.616Z,99.99
2018-12-05T05:24:10.587Z,99.8
2018-12-05T05:25:10.566Z,99.99
2018-12-05T05:26:10.551Z,99.99
2018-12-05T05:27:10.536Z,99.99
2018-12-05T05:28:10.514Z,99.99
2018-12-05T05:29:10.500Z,99.99
2018-12-05T05:30:10.488Z,99.71
2018-12-05T05:31:10.471Z,99.99
2018-12-05T05:32:10.452Z,99.9
2018-12-05T05:33:10.435Z,99.99
2018-12-05T05:34:10.419Z,99.99
2018-12-05T05:35:10.403Z,99.8
2018-12-05T05:36:10.395Z,99.99
2018-12-05T05:37:10.369Z,99.71
2018-12-05T05:38:10.358Z,99.99
2018-12-05T05:39:10.337Z,99.99
2018-12-05T05:40:10.325Z,99.99
2018-12-05T05:41:10.301Z,99.99
2018-12-05T05:42:10.286Z,99.71
2018-12-05T05:43:10.273Z,99.99
2018-12-05T05:44:10.371Z,99.9
2018-12-05T05:45:10.006Z,99.43
2018-12-05T05:46:10.220Z,99.8
2018-12-05T05:47:10.203Z,99.62
2018-12-05T05:48:10.187Z,99.99
2018-12-05T05:49:10.168Z,99.99
2018-12-05T05:50:10.159Z,99.99
2018-12-05T05:51:10.137Z,99.99
2018-12-05T05:52:10.120Z,99.9
2018-12-05T05:53:10.107Z,99.8
2018-12-05T05:54:10.091Z,99.43
2018-12-05T05:55:10.070Z,99.9
2018-12-05T05:56:10.057Z,99.62
2018-12-05T05:57:10.042Z,99.9
2018-12-05T05:58:10.021Z,99.62
2018-12-05T05:59:10.005Z,99.52
2018-12-05T06:00:09.991Z,99.43
2018-12-05T06:01:09.972Z,99.62
2018-12-05T06:02:09.958Z,99.43
2018-12-05T06:03:09.942Z,99.43
2018-12-05T06:04:09.929Z,99.9
2018-12-05T06:05:09.909Z,99.99
2018-12-05T06:06:09.892Z,99.99
2018-12-05T06:07:09.875Z,99.99
2018-12-05T06:08:09.862Z,99.43
2018-12-05T06:09:09.847Z,99.62
2018-12-05T06:10:09.828Z,99.8
2018-12-05T06:11:09.810Z,99.8
2018-12-05T06:12:09.792Z,99.9
2018-12-05T06:13:09.778Z,99.8
2018-12-05T06:14:09.759Z,99.8
2018-12-05T06:15:09.743Z,99.8
2018-12-05T06:16:09.727Z,99.8
2018-12-05T06:17:09.720Z,99.62
2018-12-05T06:18:09.696Z,99.8
2018-12-05T06:19:09.679Z,99.9
2018-12-05T06:20:09.662Z,99.9
2018-12-05T06:21:09.644Z,99.99
2018-12-05T06:22:09.630Z,99.62
2018-12-05T06:23:09.614Z,99.9
2018-12-05T06:24:09.604Z,99.8
2018-12-05T06:25:09.593Z,99.71
2018-12-05T06:26:09.565Z,99.9
2018-12-05T06:27:09.545Z,99.8
2018-12-05T06:28:09.528Z,99.8
2018-12-05T06:29:09.514Z,99.9
2018-12-05T06:30:09.497Z,99.33
2018-12-05T06:31:09.484Z,99.99
2018-12-05T06:32:09.465Z,99.99
2018-12-05T06:33:09.524Z,99.99
2018-12-05T06:34:09.430Z,99.99
2018-12-05T06:35:09.414Z,99.99
2018-12-05T06:36:09.397Z,99.99
2018-12-05T06:37:09.381Z,99.99
2018-12-05T06:38:09.363Z,99.71
2018-12-05T06:39:09.352Z,99.62
2018-12-05T06:40:09.333Z,99.62
2018-12-05T06:41:09.319Z,99.62
2018-12-05T06:42:09.296Z,99.71
2018-12-05T06:43:09.280Z,99.71
2018-12-05T06:44:09.266Z,99.99
2018-12-05T06:45:09.247Z,99.71
2018-12-05T06:46:09.234Z,99.71
2018-12-05T06:47:09.220Z,99.99
2018-12-05T06:48:09.198Z,99.62
2018-12-05T06:49:09.183Z,99.71
2018-12-05T06:50:09.167Z,99.9
2018-12-05T06:51:09.158Z,99.99
2018-12-05T06:52:09.132Z,99.99
2018-12-05T06:53:09.117Z,99.99
2018-12-05T06:54:09.098Z,99.99
2018-12-05T06:55:09.081Z,99.99
2018-12-05T06:56:09.063Z,99.99
2018-12-05T06:57:09.046Z,99.99
2018-12-05T06:58:09.031Z,99.99
2018-12-05T06:59:09.015Z,99.99
2018-12-05T07:00:10.562Z,99.99
2018-12-05T07:01:08.980Z,99.99
2018-12-05T07:02:08.965Z,99.99
2018-12-05T07:03:08.947Z,99.99
2018-12-05T07:04:08.931Z,99.99
2018-12-05T07:05:09.168Z,99.99
2018-12-05T07:06:08.899Z,99.99
2018-12-05T07:07:08.880Z,99.9
2018-12-05T07:08:08.867Z,99.99
2018-12-05T07:09:08.851Z,99.99
2018-12-05T07:10:08.834Z,99.99
2018-12-05T07:11:08.815Z,99.99
2018-12-05T07:12:08.800Z,99.99
2018-12-05T07:13:08.787Z,99.99
2018-12-05T07:14:08.761Z,99.8
2018-12-05T07:15:08.748Z,99.99
2018-12-05T07:16:08.730Z,99.99
2018-12-05T07:17:08.476Z,99.99
2018-12-05T07:18:08.697Z,99.99
2018-12-05T07:19:08.682Z,99.99
2018-12-05T07:20:08.664Z,99.99
2018-12-05T07:21:08.647Z,99.71
2018-12-05T07:22:08.632Z,99.8
2018-12-05T07:23:08.616Z,99.99
2018-12-05T07:24:09.063Z,99.99
2018-12-05T07:25:08.584Z,99.99
2018-12-05T07:26:08.565Z,99.99
2018-12-05T07:27:08.548Z,99.99
2018-12-05T07:28:08.530Z,99.99
2018-12-05T07:29:08.513Z,99.8
2018-12-05T07:30:08.530Z,99.71
2018-12-05T07:31:08.483Z,99.71
2018-12-05T07:32:08.467Z,99.99
2018-12-05T07:33:08.451Z,99.99
2018-12-05T07:34:08.433Z,99.71
2018-12-05T07:35:08.417Z,99.52
2018-12-05T07:36:08.399Z,99.33
2018-12-05T07:37:08.383Z,99.52
2018-12-05T07:38:08.371Z,99.52
2018-12-05T07:39:08.355Z,99.52
2018-12-05T07:40:08.335Z,99.62
2018-12-05T07:41:08.321Z,99.52
2018-12-05T07:42:08.303Z,99.71
2018-12-05T07:43:08.290Z,99.52
2018-12-05T07:44:08.271Z,99.9
2018-12-05T07:45:08.257Z,99.9
2018-12-05T07:46:08.239Z,99.9
2018-12-05T07:47:08.222Z,99.48
2018-12-05T07:48:08.207Z,99.48
2018-12-05T07:49:08.198Z,99.48
2018-12-05T07:50:08.178Z,99.66
2018-12-05T07:51:08.165Z,99.57
2018-12-05T07:52:08.146Z,99.48
2018-12-05T07:53:08.127Z,99.66
2018-12-05T07:54:08.110Z,99.57
2018-12-05T07:55:08.093Z,99.57
2018-12-05T07:56:08.078Z,99.66
2018-12-05T07:57:08.066Z,99.76
2018-12-05T07:58:08.047Z,99.66
2018-12-05T07:59:07.793Z,99.66
2018-12-05T08:00:08.021Z,99.57
2018-12-05T08:01:07.998Z,99.38
2018-12-05T08:02:07.983Z,99.38
2018-12-05T08:03:07.975Z,99.57
2018-12-05T08:04:07.953Z,99.57
2018-12-05T08:05:07.937Z,99.66
2018-12-05T08:06:07.929Z,99.57
2018-12-05T08:07:07.904Z,99.48
2018-12-05T08:08:07.891Z,99.66
2018-12-05T08:09:07.873Z,99.66
2018-12-05T08:10:07.855Z,99.01
2018-12-05T08:11:07.841Z,99.01
2018-12-05T08:12:07.825Z,99.01
2018-12-05T08:13:07.809Z,99.19
2018-12-05T08:14:09.071Z,99.1
2018-12-05T08:15:07.781Z,99.1
2018-12-05T08:16:07.761Z,99.01
2018-12-05T08:17:07.749Z,98.91
2018-12-05T08:18:07.730Z,99.01
2018-12-05T08:19:07.717Z,99.19
2018-12-05T08:20:07.698Z,99.1
2018-12-05T08:21:07.685Z,99.01
2018-12-05T08:22:07.671Z,99.19
2018-12-05T08:23:07.659Z,99.24
2018-12-05T08:24:07.637Z,99.01
2018-12-05T08:25:07.622Z,99.15
2018-12-05T08:26:07.605Z,99.01
2018-12-05T08:27:07.590Z,99.15
2018-12-05T08:28:07.586Z,99.05
2018-12-05T08:29:07.559Z,99.15
2018-12-05T08:30:07.544Z,99.24
2018-12-05T08:31:07.527Z,99.24
2018-12-05T08:32:07.944Z,99.24
2018-12-05T08:33:07.501Z,99.05
2018-12-05T08:34:07.484Z,99.15
2018-12-05T08:35:07.467Z,99.05
2018-12-05T08:36:07.451Z,99.33
2018-12-05T08:37:07.438Z,99.33
2018-12-05T08:38:07.423Z,98.86
2018-12-05T08:39:07.408Z,98.68
2018-12-05T08:40:07.389Z,98.68
2018-12-05T08:41:07.379Z,99.05
2018-12-05T08:42:07.357Z,98.68
2018-12-05T08:43:07.346Z,98.58
2018-12-05T08:44:07.330Z,98.96
2018-12-05T08:45:07.313Z,98.96
2018-12-05T08:46:07.297Z,98.49
2018-12-05T08:47:07.283Z,98.86
2018-12-05T08:48:07.269Z,98.86
2018-12-05T08:49:07.251Z,98.58
2018-12-05T08:50:07.254Z,98.58
2018-12-05T08:51:07.223Z,98.68
2018-12-05T08:52:07.208Z,98.86
2018-12-05T08:53:07.198Z,98.68
2018-12-05T08:54:07.178Z,99.15
2018-12-05T08:55:07.165Z,98.68
2018-12-05T08:56:07.161Z,98.68
2018-12-05T08:57:07.131Z,99.05
2018-12-05T08:58:07.117Z,98.3
2018-12-05T08:59:07.109Z,98.86
2018-12-05T09:00:07.086Z,98.63
2018-12-05T09:01:07.079Z,98.68
2018-12-05T09:02:07.059Z,98.86
2018-12-05T09:03:07.045Z,98.86
2018-12-05T09:04:07.027Z,98.63
2018-12-05T09:05:07.019Z,98.82
2018-12-05T09:06:06.997Z,99.1
2018-12-05T09:07:06.984Z,98.63
2018-12-05T09:08:06.968Z,98.82
2018-12-05T09:09:06.954Z,98.82
2018-12-05T09:10:06.937Z,98.91
2018-12-05T09:11:06.924Z,98.63
2018-12-05T09:12:06.910Z,98.44
2018-12-05T09:13:06.898Z,99.1
2018-12-05T09:14:06.880Z,98.72
2018-12-05T09:15:07.250Z,99.01
2018-12-05T09:16:06.851Z,99.1
2018-12-05T09:17:06.834Z,98.91
2018-12-05T09:18:06.823Z,98.63
2018-12-05T09:19:06.804Z,98.72
2018-12-05T09:20:06.792Z,98.72
2018-12-05T09:21:06.779Z,98.82
2018-12-05T09:22:06.763Z,99.01
2018-12-05T09:23:06.749Z,98.72
2018-12-05T09:24:06.737Z,98.72
2018-12-05T09:25:06.806Z,98.63
2018-12-05T09:26:06.703Z,98.82
2018-12-05T09:27:06.697Z,98.54
2018-12-05T09:28:06.675Z,98.72
2018-12-05T09:29:06.659Z,98.63
2018-12-05T09:30:06.649Z,98.91
2018-12-05T09:31:06.633Z,98.63
2018-12-05T09:32:06.616Z,98.82
2018-12-05T09:33:06.603Z,98.82
2018-12-05T09:34:06.590Z,98.72
2018-12-05T09:35:06.572Z,98.91
2018-12-05T09:36:06.560Z,98.82
2018-12-05T09:37:06.542Z,97.97
2018-12-05T09:38:06.531Z,97.97
2018-12-05T09:39:06.515Z,97.87
2018-12-05T09:40:06.499Z,98.44
2018-12-05T09:41:06.484Z,98.25
2018-12-05T09:42:06.227Z,98.3
2018-12-05T09:43:06.458Z,98.16
2018-12-05T09:44:06.445Z,98.3
2018-12-05T09:45:06.431Z,98.11
2018-12-05T09:46:06.413Z,98.11
2018-12-05T09:47:06.408Z,98.58
2018-12-05T09:48:06.391Z,98.49
2018-12-05T09:49:06.374Z,98.3
2018-12-05T09:50:06.355Z,98.39
2018-12-05T09:51:06.340Z,98.21
2018-12-05T09:52:06.325Z,98.11
2018-12-05T09:53:06.313Z,98.49
2018-12-05T09:54:06.298Z,98.3
2018-12-05T09:55:06.282Z,98.11
2018-12-05T09:56:06.269Z,97.92
2018-12-05T09:57:06.260Z,98.3
2018-12-05T09:58:06.242Z,98.21
2018-12-05T09:59:06.226Z,98.3
2018-12-05T10:00:06.215Z,98.3
2018-12-05T10:01:06.196Z,98.11
2018-12-05T10:02:06.182Z,98.02
2018-12-05T10:03:06.173Z,98.21
2018-12-05T10:04:06.154Z,98.21
2018-12-05T10:05:06.139Z,98.02
2018-12-05T10:06:06.126Z,98.02
2018-12-05T10:07:06.113Z,98.39
2018-12-05T10:08:06.100Z,98.3
2018-12-05T10:09:06.090Z,98.11
2018-12-05T10:10:06.069Z,98.3
2018-12-05T10:11:06.141Z,98.3
2018-12-05T10:12:06.041Z,97.92
2018-12-05T10:13:06.027Z,97.73
2018-12-05T10:14:06.017Z,97.83
2018-12-05T10:15:06.008Z,97.83
2018-12-05T10:16:05.986Z,97.97
2018-12-05T10:17:05.976Z,97.78
2018-12-05T10:18:05.965Z,97.78
2018-12-05T10:19:05.948Z,97.78
2018-12-05T10:20:05.931Z,97.78
2018-12-05T10:21:05.921Z,97.59
2018-12-05T10:22:05.902Z,97.69
2018-12-05T10:23:05.889Z,97.59
2018-12-05T10:24:05.876Z,97.69
2018-12-05T10:25:05.881Z,97.88
2018-12-05T10:26:05.848Z,97.69
2018-12-05T10:27:05.840Z,97.88
2018-12-05T10:28:05.819Z,97.88
2018-12-05T10:29:05.805Z,97.88
2018-12-05T10:30:05.796Z,97.97
2018-12-05T10:31:05.782Z,98.07
2018-12-05T10:32:07.500Z,97.97
2018-12-05T10:33:05.753Z,98.07
2018-12-05T10:34:05.738Z,97.97
2018-12-05T10:35:05.724Z,97.97
2018-12-05T10:36:05.793Z,98.07
2018-12-05T10:37:05.694Z,97.97
2018-12-05T10:38:05.682Z,98.25
2018-12-05T10:39:05.669Z,98.16
2018-12-05T10:40:05.654Z,98.35
2018-12-05T10:41:05.641Z,98.16
2018-12-05T10:42:05.635Z,98.35
2018-12-05T10:43:05.612Z,98.35
2018-12-05T10:44:05.601Z,98.44
2018-12-05T10:45:05.590Z,98.07
2018-12-05T10:46:05.576Z,98.44
2018-12-05T10:47:05.560Z,98.07
2018-12-05T10:48:05.547Z,97.88
2018-12-05T10:49:05.533Z,97.78
2018-12-05T10:50:05.522Z,97.78
2018-12-05T10:51:05.599Z,97.69
2018-12-05T10:52:05.491Z,97.36
2018-12-05T10:53:05.481Z,97.74
2018-12-05T10:54:05.468Z,97.78
2018-12-05T10:55:05.452Z,97.74
2018-12-05T10:56:05.441Z,98.21
2018-12-05T10:57:05.426Z,97.64
2018-12-05T10:58:05.413Z,97.83
2018-12-05T10:59:05.399Z,97.92
2018-12-05T11:00:05.390Z,98.21
2018-12-05T11:01:05.372Z,97.83
2018-12-05T11:02:05.359Z,97.83
2018-12-05T11:03:05.343Z,97.92
2018-12-05T11:04:05.333Z,97.83
2018-12-05T11:05:05.323Z,97.83
2018-12-05T11:06:05.307Z,97.92
2018-12-05T11:07:05.294Z,97.83
2018-12-05T11:08:05.286Z,97.92
2018-12-05T11:09:05.265Z,97.64
2018-12-05T11:10:05.252Z,97.55
2018-12-05T11:11:05.240Z,97.74
2018-12-05T11:12:05.233Z,97.74
2018-12-05T11:13:05.213Z,97.74
2018-12-05T11:14:05.201Z,97.83
2018-12-05T11:15:05.438Z,97.74
2018-12-05T11:16:05.178Z,97.74
2018-12-05T11:17:05.161Z,97.92
2018-12-05T11:18:05.148Z,97.55
2018-12-05T11:19:05.135Z,97.45
2018-12-05T11:20:05.123Z,97.64
2018-12-05T11:21:05.108Z,97.26
2018-12-05T11:22:05.101Z,97.64
2018-12-05T11:23:05.082Z,97.74
2018-12-05T11:24:05.070Z,97.36
2018-12-05T11:25:05.058Z,97.45
2018-12-05T11:26:05.045Z,97.74
2018-12-05T11:27:05.031Z,97.55
2018-12-05T11:28:05.017Z,97.36
2018-12-05T11:29:05.003Z,97.64
2018-12-05T11:30:04.992Z,97.92
2018-12-05T11:31:04.979Z,97.83
2018-12-05T11:32:04.965Z,97.26
2018-12-05T11:33:04.955Z,97.36
2018-12-05T11:34:04.942Z,97.36
2018-12-05T11:35:04.927Z,97.07
2018-12-05T11:36:04.917Z,97.45
2018-12-05T11:37:04.902Z,97.36
2018-12-05T11:38:04.888Z,97.45
2018-12-05T11:39:04.876Z,97.45
2018-12-05T11:40:04.863Z,97.55
2018-12-05T11:41:04.852Z,97.64
2018-12-05T11:42:04.838Z,97.36
2018-12-05T11:43:04.829Z,97.5
2018-12-05T11:44:04.810Z,97.64
2018-12-05T11:45:04.798Z,97.31
2018-12-05T11:46:04.789Z,97.36
2018-12-05T11:47:04.774Z,97.31
2018-12-05T11:48:04.761Z,97.31
2018-12-05T11:49:04.750Z,97.31
2018-12-05T11:50:04.734Z,97.41
2018-12-05T11:51:04.725Z,97.41
2018-12-05T11:52:04.707Z,97.5
2018-12-05T11:53:04.699Z,97.5
2018-12-05T11:54:04.682Z,97.02
2018-12-05T11:55:04.673Z,97.31
2018-12-05T11:56:04.657Z,97.41
2018-12-05T11:57:04.645Z,96.74
2018-12-05T11:58:04.699Z,97.02
2018-12-05T11:59:04.630Z,97.31
2018-12-05T12:00:04.617Z,97.22
2018-12-05T12:01:04.595Z,96.83
2018-12-05T12:02:04.581Z,96.83
2018-12-05T12:03:04.569Z,97.12
2018-12-05T12:04:04.322Z,97.31
2018-12-05T12:05:04.546Z,96.83
2018-12-05T12:06:04.534Z,97.02
2018-12-05T12:07:04.520Z,96.93
2018-12-05T12:08:04.506Z,96.64
2018-12-05T12:09:04.496Z,96.64
2018-12-05T12:10:04.483Z,97.02
2018-12-05T12:11:04.467Z,96.45
2018-12-05T12:12:04.458Z,96.93
2018-12-05T12:13:04.443Z,96.45
2018-12-05T12:14:04.431Z,96.55
2018-12-05T12:15:04.420Z,96.55
2018-12-05T12:16:04.408Z,96.64
2018-12-05T12:17:04.392Z,96.64
2018-12-05T12:18:04.384Z,96.93
2018-12-05T12:19:04.370Z,96.83
2018-12-05T12:20:04.354Z,96.55
2018-12-05T12:21:04.341Z,96.55
2018-12-05T12:22:04.329Z,96.36
2018-12-05T12:23:04.317Z,96.45
2018-12-05T12:24:04.306Z,96.83
2018-12-05T12:25:04.300Z,96.74
2018-12-05T12:26:04.279Z,96.55
2018-12-05T12:27:04.277Z,96.83
2018-12-05T12:28:04.294Z,96.64
2018-12-05T12:29:04.244Z,96.55
2018-12-05T12:30:04.230Z,96.64
2018-12-05T12:31:04.217Z,96.36
2018-12-05T12:32:04.210Z,96.36
2018-12-05T12:33:05.283Z,96.64
2018-12-05T12:34:04.182Z,96.26
2018-12-05T12:35:04.178Z,96.36
2018-12-05T12:36:04.156Z,96.55
2018-12-05T12:37:04.141Z,96.36
2018-12-05T12:38:04.130Z,96.55
2018-12-05T12:39:04.122Z,96.45
2018-12-05T12:40:04.105Z,96.36
2018-12-05T12:41:04.095Z,96.36
2018-12-05T12:42:04.084Z,96.74
2018-12-05T12:43:04.067Z,95.98
2018-12-05T12:44:04.055Z,96.08
2018-12-05T12:45:04.039Z,96.26
2018-12-05T12:46:04.030Z,95.89
2018-12-05T12:47:04.016Z,95.98
2018-12-05T12:48:04.015Z,95.98
2018-12-05T12:49:03.994Z,96.08
2018-12-05T12:50:03.986Z,95.12
2018-12-05T12:51:03.969Z,95.41
2018-12-05T12:52:03.956Z,94.93
2018-12-05T12:53:03.942Z,95.7
2018-12-05T12:54:03.929Z,95.6